createdAt,value
2022-08-09T00:00:12.612Z,22.00
2022-08-09T00:01:52.744Z,22.00
2022-08-09T00:04:03.732Z,21.90
2022-08-09T00:06:18.562Z,22.00
2022-08-09T00:07:14.947Z,21.90
2022-08-09T00:08:50.378Z,21.90
2022-08-09T00:10:26.287Z,22.00
2022-08-09T00:12:03.663Z,22.00
2022-08-09T00:13:38.514Z,21.90
2022-08-09T00:15:14.826Z,21.90
2022-08-09T00:16:48.980Z,21.90
2022-08-09T00:18:23.239Z,21.90
2022-08-09T00:19:56.724Z,21.90
2022-08-09T00:21:30.604Z,21.90
2022-08-09T00:23:54.062Z,21.90
2022-08-09T00:24:56.456Z,21.90
2022-08-09T00:26:33.108Z,21.90
2022-08-09T00:28:06.575Z,21.80
2022-08-09T00:30:24.719Z,21.80
2022-08-09T00:31:59.243Z,21.80
2022-08-09T00:33:32.759Z,21.80
2022-08-09T00:35:19.262Z,21.80
2022-08-09T00:36:53.294Z,21.80
2022-08-09T00:38:25.644Z,21.70
2022-08-09T00:40:13.629Z,21.70
2022-08-09T00:44:13.997Z,21.70
2022-08-09T00:44:19.144Z,21.60
2022-08-09T00:45:37.567Z,21.60
2022-08-09T00:47:23.846Z,21.60
2022-08-09T00:48:58.384Z,21.50
2022-08-09T00:50:32.755Z,21.50
2022-08-09T00:52:15.999Z,21.50
2022-08-09T00:53:59.715Z,21.50
2022-08-09T00:56:03.856Z,21.40
2022-08-09T00:57:34.874Z,21.40
2022-08-09T00:59:08.499Z,21.40
2022-08-09T01:00:43.547Z,21.30
2022-08-09T01:02:20.939Z,21.30
2022-08-09T01:04:00.094Z,21.30
2022-08-09T01:05:53.725Z,21.20
2022-08-09T01:07:37.720Z,21.20
2022-08-09T01:09:36.649Z,21.20
2022-08-09T01:11:18.455Z,21.10
2022-08-09T01:12:58.725Z,21.10
2022-08-09T01:14:36.217Z,21.10
2022-08-09T01:16:12.857Z,21.00
2022-08-09T01:17:51.993Z,21.10
2022-08-09T01:19:51.695Z,21.10
2022-08-09T01:21:45.060Z,21.10
2022-08-09T01:24:02.294Z,21.10
2022-08-09T01:25:52.845Z,21.10
2022-08-09T01:27:29.062Z,21.00
2022-08-09T01:29:04.699Z,21.10
2022-08-09T01:30:52.536Z,21.00
2022-08-09T01:32:33.779Z,21.10
2022-08-09T01:34:12.298Z,21.00
2022-08-09T01:35:51.878Z,21.00
2022-08-09T01:38:05.794Z,21.00
2022-08-09T01:39:23.299Z,20.90
2022-08-09T01:41:05.186Z,20.90
2022-08-09T01:42:40.619Z,20.90
2022-08-09T01:44:17.351Z,20.80
2022-08-09T01:45:58.009Z,20.80
2022-08-09T01:47:32.330Z,20.80
2022-08-09T01:49:18.922Z,20.80
2022-08-09T01:50:55.798Z,20.80
2022-08-09T01:52:30.873Z,20.80
2022-08-09T01:54:05.120Z,20.80
2022-08-09T01:55:38.943Z,20.80
2022-08-09T01:57:15.595Z,20.80
2022-08-09T01:58:51.575Z,20.80
2022-08-09T02:00:35.765Z,20.70
2022-08-09T02:02:11.326Z,20.70
2022-08-09T02:03:45.684Z,20.80
2022-08-09T02:05:37.635Z,20.70
2022-08-09T02:08:35.078Z,20.70
2022-08-09T02:09:10.246Z,20.70
2022-08-09T02:10:51.013Z,20.70
2022-08-09T02:12:24.952Z,20.70
2022-08-09T02:14:07.241Z,20.60
2022-08-09T02:15:49.427Z,20.60
2022-08-09T02:17:59.116Z,20.70
2022-08-09T02:19:20.163Z,20.60
2022-08-09T02:20:58.714Z,20.60
2022-08-09T02:22:39.039Z,20.70
2022-08-09T02:24:26.063Z,20.60
2022-08-09T02:26:02.008Z,20.60
2022-08-09T02:27:58.085Z,20.50
2022-08-09T02:29:36.839Z,20.50
2022-08-09T02:31:13.478Z,20.50
2022-08-09T02:32:49.446Z,20.50
2022-08-09T02:34:41.654Z,20.50
2022-08-09T02:36:31.143Z,20.40
2022-08-09T02:38:05.735Z,20.40
2022-08-09T02:39:45.329Z,20.40
2022-08-09T02:41:28.999Z,20.40
2022-08-09T02:43:03.788Z,20.40
2022-08-09T02:44:42.736Z,20.30
2022-08-09T02:46:18.515Z,20.40
2022-08-09T02:47:59.294Z,20.30
2022-08-09T02:49:38.772Z,20.30
2022-08-09T02:51:19.007Z,20.30
2022-08-09T02:52:57.411Z,20.30
2022-08-09T02:54:32.551Z,20.30
2022-08-09T02:56:09.223Z,20.30
2022-08-09T02:58:00.224Z,20.20
2022-08-09T02:59:39.780Z,20.20
2022-08-09T03:01:58.675Z,20.20
2022-08-09T03:04:13.137Z,20.10
2022-08-09T03:05:22.541Z,20.10
2022-08-09T03:06:56.366Z,20.10
2022-08-09T03:08:33.287Z,20.10
2022-08-09T03:10:08.159Z,20.10
2022-08-09T03:12:05.562Z,20.10
2022-08-09T03:13:43.294Z,20.10
2022-08-09T03:16:04.501Z,20.10
2022-08-09T03:17:27.236Z,20.10
2022-08-09T03:19:02.046Z,20.20
2022-08-09T03:20:34.977Z,20.20
2022-08-09T03:22:24.849Z,20.20
2022-08-09T03:24:04.738Z,20.20
2022-08-09T03:25:57.760Z,20.20
2022-08-09T03:27:44.759Z,20.20
2022-08-09T03:29:23.062Z,20.20
2022-08-09T03:30:58.324Z,20.20
2022-08-09T03:32:32.328Z,20.20
2022-08-09T03:34:06.960Z,20.20
2022-08-09T03:35:44.163Z,20.20
2022-08-09T03:37:55.242Z,20.20
2022-08-09T03:39:19.673Z,20.20
2022-08-09T03:40:58.107Z,20.10
2022-08-09T03:42:31.242Z,20.00
2022-08-09T03:44:08.716Z,20.00
2022-08-09T03:46:03.949Z,19.90
2022-08-09T03:47:36.711Z,19.90
2022-08-09T03:49:17.364Z,19.90
2022-08-09T03:50:53.711Z,19.90
2022-08-09T03:52:28.607Z,19.90
2022-08-09T03:54:01.402Z,19.90
2022-08-09T03:55:36.258Z,19.90
2022-08-09T03:57:20.406Z,19.90
2022-08-09T03:58:54.648Z,19.90
2022-08-09T04:00:28.631Z,19.90
2022-08-09T04:02:01.892Z,19.80
2022-08-09T04:04:00.505Z,19.80
2022-08-09T04:05:32.264Z,19.80
2022-08-09T04:07:13.307Z,19.70
2022-08-09T04:08:47.288Z,19.70
2022-08-09T04:10:29.519Z,19.60
2022-08-09T04:12:30.883Z,19.60
2022-08-09T04:14:37.058Z,19.70
2022-08-09T04:16:19.943Z,19.70
2022-08-09T04:17:50.192Z,19.70
2022-08-09T04:19:42.935Z,19.70
2022-08-09T04:21:18.875Z,19.70
2022-08-09T04:22:50.652Z,19.70
2022-08-09T04:24:26.918Z,19.70
2022-08-09T04:25:59.774Z,19.70
2022-08-09T04:27:32.816Z,19.80
2022-08-09T04:29:15.431Z,19.80
2022-08-09T04:30:48.540Z,19.70
2022-08-09T04:32:31.619Z,19.80
2022-08-09T04:34:06.956Z,19.90
2022-08-09T04:35:42.373Z,19.90
2022-08-09T04:37:15.230Z,19.90
2022-08-09T04:38:48.847Z,19.90
2022-08-09T04:40:35.944Z,19.90
2022-08-09T04:42:09.439Z,19.90
2022-08-09T04:43:51.057Z,19.90
2022-08-09T04:45:36.149Z,19.90
2022-08-09T04:47:27.893Z,19.90
2022-08-09T04:49:18.089Z,19.90
2022-08-09T04:51:04.661Z,19.90
2022-08-09T04:52:37.751Z,19.90
2022-08-09T04:54:10.775Z,19.90
2022-08-09T04:55:57.736Z,19.90
2022-08-09T04:57:59.150Z,19.90
2022-08-09T04:59:24.063Z,19.90
2022-08-09T05:01:04.395Z,19.80
2022-08-09T05:02:51.926Z,19.80
2022-08-09T05:04:31.294Z,19.80
2022-08-09T05:06:07.627Z,19.90
2022-08-09T05:07:40.519Z,19.90
2022-08-09T05:09:19.243Z,19.80
2022-08-09T05:10:53.793Z,19.80
2022-08-09T05:12:26.554Z,19.80
2022-08-09T05:13:59.317Z,19.70
2022-08-09T05:15:42.684Z,19.70
2022-08-09T05:18:38.330Z,19.70
2022-08-09T05:19:14.910Z,19.70
2022-08-09T05:20:47.695Z,19.70
2022-08-09T05:22:36.066Z,19.70
2022-08-09T05:24:16.276Z,19.80
2022-08-09T05:25:50.952Z,19.80
2022-08-09T05:27:23.031Z,19.80
2022-08-09T05:28:55.843Z,19.80
2022-08-09T05:30:31.339Z,19.80
2022-08-09T05:32:05.869Z,19.80
2022-08-09T05:33:42.486Z,19.80
2022-08-09T05:35:15.481Z,19.90
2022-08-09T05:36:48.580Z,19.90
2022-08-09T05:38:23.387Z,19.90
2022-08-09T05:40:00.877Z,20.00
2022-08-09T05:41:33.665Z,20.00
2022-08-09T05:43:07.179Z,20.00
2022-08-09T05:44:41.698Z,20.00
2022-08-09T05:46:16.747Z,20.00
2022-08-09T05:47:52.338Z,20.10
2022-08-09T05:50:23.132Z,20.10
2022-08-09T05:51:42.879Z,20.10
2022-08-09T05:53:21.588Z,20.10
2022-08-09T05:55:08.784Z,20.20
2022-08-09T05:56:55.358Z,20.20
2022-08-09T05:58:29.584Z,20.20
2022-08-09T06:00:02.348Z,20.20
2022-08-09T06:01:42.716Z,20.20
2022-08-09T06:03:19.607Z,20.20
2022-08-09T06:04:52.996Z,20.20
2022-08-09T06:06:28.594Z,20.20
2022-08-09T06:08:05.391Z,20.30
2022-08-09T06:09:54.768Z,20.30
2022-08-09T06:11:40.787Z,20.30
2022-08-09T06:13:25.433Z,20.30
2022-08-09T06:15:02.253Z,20.30
2022-08-09T06:16:36.975Z,20.40
2022-08-09T06:18:09.897Z,20.50
2022-08-09T06:19:44.100Z,20.50
2022-08-09T06:21:18.277Z,20.60
2022-08-09T06:22:53.403Z,20.60
2022-08-09T06:24:26.178Z,20.80
2022-08-09T06:25:59.238Z,20.90
2022-08-09T06:27:43.120Z,20.90
2022-08-09T06:29:24.496Z,21.00
2022-08-09T06:30:59.723Z,21.00
2022-08-09T06:32:59.409Z,21.10
2022-08-09T06:34:29.819Z,21.10
2022-08-09T06:36:03.788Z,21.30
2022-08-09T06:37:49.871Z,21.30
2022-08-09T06:39:48.486Z,21.40
2022-08-09T06:41:20.543Z,21.40
2022-08-09T06:42:55.029Z,21.50
2022-08-09T06:44:28.698Z,21.50
2022-08-09T06:46:07.663Z,21.60
2022-08-09T06:47:43.371Z,21.70
2022-08-09T06:49:22.753Z,21.70
2022-08-09T06:51:09.276Z,21.80
2022-08-09T06:52:47.046Z,21.90
2022-08-09T06:54:20.394Z,21.90
2022-08-09T06:55:53.272Z,22.00
2022-08-09T06:57:42.740Z,22.10
2022-08-09T07:00:50.842Z,22.20
2022-08-09T07:01:13.112Z,22.20
2022-08-09T07:02:46.237Z,22.30
2022-08-09T07:04:20.422Z,22.30
2022-08-09T07:06:02.200Z,22.50
2022-08-09T07:08:00.479Z,22.60
2022-08-09T07:09:54.832Z,22.80
2022-08-09T07:11:25.693Z,23.00
2022-08-09T07:13:18.512Z,23.30
2022-08-09T07:14:55.406Z,23.60
2022-08-09T07:16:42.208Z,23.80
2022-08-09T07:18:22.019Z,24.00
2022-08-09T07:19:55.591Z,24.30
2022-08-09T07:21:30.967Z,24.40
2022-08-09T07:23:19.523Z,24.60
2022-08-09T07:24:52.585Z,24.80
2022-08-09T07:26:25.383Z,24.90
2022-08-09T07:27:58.102Z,25.00
2022-08-09T07:29:38.142Z,25.10
2022-08-09T07:31:17.089Z,25.30
2022-08-09T07:32:51.547Z,25.30
2022-08-09T07:34:25.626Z,25.30
2022-08-09T07:35:58.621Z,25.30
2022-08-09T07:37:31.354Z,25.40
2022-08-09T07:39:19.958Z,25.50
2022-08-09T07:41:11.837Z,25.60
2022-08-09T07:42:50.290Z,25.60
2022-08-09T07:44:24.164Z,25.70
2022-08-09T07:46:19.510Z,25.80
2022-08-09T07:48:01.737Z,25.90
2022-08-09T07:50:05.564Z,25.90
2022-08-09T07:52:06.122Z,26.00
2022-08-09T07:54:01.644Z,26.00
2022-08-09T07:55:15.998Z,26.00
2022-08-09T07:56:50.105Z,26.00
2022-08-09T07:58:26.800Z,26.20
2022-08-09T08:00:03.723Z,26.40
2022-08-09T08:01:38.278Z,26.50
2022-08-09T08:03:12.439Z,26.60
2022-08-09T08:04:48.839Z,26.70
2022-08-09T08:06:22.176Z,26.80
2022-08-09T08:08:43.724Z,27.20
2022-08-09T08:10:07.953Z,27.20
2022-08-09T08:12:25.414Z,27.30
2022-08-09T08:13:40.047Z,27.40
2022-08-09T08:15:27.724Z,27.50
2022-08-09T08:17:08.861Z,27.70
2022-08-09T08:18:44.776Z,27.80
2022-08-09T08:20:19.596Z,27.90
2022-08-09T08:22:02.455Z,28.00
2022-08-09T08:23:36.304Z,28.00
2022-08-09T08:25:13.516Z,28.00
2022-08-09T08:26:55.582Z,28.10
2022-08-09T08:28:32.065Z,28.20
2022-08-09T08:30:06.804Z,28.20
2022-08-09T08:32:03.777Z,28.20
2022-08-09T08:33:49.527Z,28.40
2022-08-09T08:35:25.429Z,28.60
2022-08-09T08:37:14.299Z,28.80
2022-08-09T08:38:48.564Z,29.00
2022-08-09T08:40:21.363Z,29.10
2022-08-09T08:41:58.887Z,29.20
2022-08-09T08:43:32.329Z,29.10
2022-08-09T08:45:13.470Z,29.10
2022-08-09T08:47:02.349Z,29.20
2022-08-09T08:48:40.757Z,29.40
2022-08-09T08:50:24.568Z,29.50
2022-08-09T08:52:01.884Z,29.60
2022-08-09T08:53:37.561Z,29.60
2022-08-09T08:55:30.174Z,29.80
2022-08-09T08:57:11.637Z,29.90
2022-08-09T08:58:46.445Z,30.00
2022-08-09T09:00:27.625Z,29.90
2022-08-09T09:02:04.578Z,29.80
2022-08-09T09:03:41.894Z,29.80
2022-08-09T09:05:58.397Z,29.80
2022-08-09T09:07:17.004Z,29.80
2022-08-09T09:08:59.426Z,29.80
2022-08-09T09:10:34.478Z,29.80
2022-08-09T09:12:16.759Z,29.90
2022-08-09T09:13:56.526Z,30.00
2022-08-09T09:15:31.239Z,30.20
2022-08-09T09:17:06.362Z,30.30
2022-08-09T09:18:51.916Z,30.30
2022-08-09T09:20:35.976Z,30.20
2022-08-09T09:22:11.834Z,30.30
2022-08-09T09:23:49.816Z,30.50
2022-08-09T09:26:03.165Z,30.70
2022-08-09T09:28:04.212Z,30.90
2022-08-09T09:29:51.594Z,30.80
2022-08-09T09:32:04.421Z,30.70
2022-08-09T09:33:18.052Z,30.70
2022-08-09T09:35:09.021Z,30.60
2022-08-09T09:36:51.286Z,30.70
2022-08-09T09:38:47.175Z,30.80
2022-08-09T09:40:20.359Z,30.70
2022-08-09T09:41:54.273Z,30.70
2022-08-09T09:43:27.196Z,30.70
2022-08-09T09:45:26.607Z,30.70
2022-08-09T09:47:08.347Z,30.60
2022-08-09T09:48:56.868Z,30.70
2022-08-09T09:50:51.039Z,30.70
2022-08-09T09:52:52.297Z,30.80
2022-08-09T09:54:21.003Z,30.90
2022-08-09T09:56:05.063Z,30.90
2022-08-09T09:58:00.598Z,31.00
2022-08-09T09:59:35.796Z,31.00
2022-08-09T10:01:31.352Z,31.10
2022-08-09T10:03:14.098Z,31.10
2022-08-09T10:05:02.919Z,31.20
2022-08-09T10:06:46.860Z,31.20
2022-08-09T10:08:27.999Z,31.20
2022-08-09T10:10:03.292Z,31.20
2022-08-09T10:11:59.442Z,31.20
2022-08-09T10:13:45.241Z,31.20
2022-08-09T10:15:50.826Z,31.20
2022-08-09T10:17:38.690Z,31.20
2022-08-09T10:19:07.716Z,31.10
2022-08-09T10:20:45.321Z,31.10
2022-08-09T10:22:30.899Z,31.10
2022-08-09T10:24:06.810Z,31.10
2022-08-09T10:26:04.485Z,31.10
2022-08-09T10:27:45.045Z,31.10
2022-08-09T10:30:49.413Z,31.00
2022-08-09T10:32:27.361Z,31.00
2022-08-09T10:34:08.827Z,31.00
2022-08-09T10:35:13.237Z,31.00
2022-08-09T10:36:46.289Z,31.10
2022-08-09T10:38:34.019Z,31.10
2022-08-09T10:40:33.517Z,31.10
2022-08-09T10:42:07.583Z,31.00
2022-08-09T10:43:58.514Z,31.00
2022-08-09T10:45:35.678Z,31.00
2022-08-09T10:48:16.996Z,31.10
2022-08-09T10:49:51.479Z,31.20
2022-08-09T10:51:41.265Z,31.30
2022-08-09T10:53:38.102Z,31.30
2022-08-09T10:55:23.896Z,31.30
2022-08-09T10:57:11.558Z,31.30
2022-08-09T10:58:45.210Z,31.20
2022-08-09T11:00:34.655Z,31.20
2022-08-09T11:03:11.676Z,31.10
2022-08-09T11:04:27.755Z,31.10
2022-08-09T11:06:22.866Z,31.10
2022-08-09T11:07:58.089Z,31.00
2022-08-09T11:09:52.464Z,31.00
2022-08-09T11:11:25.657Z,31.10
2022-08-09T11:13:21.736Z,31.00
2022-08-09T11:15:25.059Z,31.00
2022-08-09T11:17:53.494Z,31.00
2022-08-09T11:20:20.058Z,31.00
2022-08-09T11:22:10.153Z,31.10
2022-08-09T11:24:01.130Z,31.10
2022-08-09T11:25:49.425Z,31.00
2022-08-09T11:28:05.325Z,31.00
2022-08-09T11:30:05.266Z,30.90
2022-08-09T11:31:52.761Z,30.90
2022-08-09T11:33:39.728Z,30.90
2022-08-09T11:35:18.346Z,31.00
2022-08-09T11:36:52.712Z,31.00
2022-08-09T11:38:32.101Z,31.00
2022-08-09T11:40:08.574Z,31.00
2022-08-09T11:41:42.849Z,30.90
2022-08-09T11:43:38.784Z,30.80
2022-08-09T11:45:26.348Z,30.70
2022-08-09T11:47:11.055Z,30.80
2022-08-09T11:48:49.088Z,30.90
2022-08-09T11:50:55.585Z,30.80
2022-08-09T11:52:56.708Z,30.80
2022-08-09T11:54:27.927Z,30.80
2022-08-09T11:56:41.348Z,30.80
2022-08-09T11:58:50.008Z,30.80
2022-08-09T12:00:27.693Z,30.90
2022-08-09T12:02:16.035Z,30.90
2022-08-09T12:04:00.524Z,30.90
2022-08-09T12:05:39.758Z,30.90
2022-08-09T12:07:15.782Z,30.90
2022-08-09T12:08:53.019Z,31.00
2022-08-09T12:10:39.502Z,31.00
2022-08-09T12:12:20.518Z,31.00
2022-08-09T12:14:10.106Z,31.00
2022-08-09T12:16:03.159Z,31.00
2022-08-09T12:17:42.188Z,31.00
2022-08-09T12:19:29.878Z,31.00
2022-08-09T12:21:26.222Z,31.00
2022-08-09T12:23:01.785Z,31.00
2022-08-09T12:24:35.139Z,31.00
2022-08-09T12:26:12.172Z,30.90
2022-08-09T12:29:10.176Z,31.00
2022-08-09T12:30:36.226Z,30.90
2022-08-09T12:32:04.174Z,30.80
2022-08-09T12:33:59.278Z,30.70
2022-08-09T12:35:32.525Z,30.60
2022-08-09T12:37:23.883Z,30.50
2022-08-09T12:38:57.575Z,30.40
2022-08-09T12:40:30.345Z,30.30
2022-08-09T12:42:08.582Z,30.40
2022-08-09T12:44:06.069Z,30.50
2022-08-09T12:45:38.551Z,30.60
2022-08-09T12:47:12.167Z,30.60
2022-08-09T12:48:45.320Z,30.70
2022-08-09T12:50:17.243Z,30.70
2022-08-09T12:52:01.147Z,30.70
2022-08-09T12:53:40.807Z,30.80
2022-08-09T12:56:12.543Z,30.80
2022-08-09T12:57:39.525Z,30.80
2022-08-09T12:59:14.874Z,30.80
2022-08-09T13:00:49.012Z,30.80
2022-08-09T13:02:21.876Z,30.80
2022-08-09T13:04:01.846Z,30.80
2022-08-09T13:05:52.327Z,30.90
2022-08-09T13:07:50.947Z,31.00
2022-08-09T13:09:26.093Z,31.00
2022-08-09T13:11:13.174Z,30.90
2022-08-09T13:13:09.998Z,30.90
2022-08-09T13:14:48.751Z,30.90
2022-08-09T13:16:38.775Z,30.70
2022-08-09T13:18:17.847Z,30.70
2022-08-09T13:20:08.938Z,30.70
2022-08-09T13:22:37.216Z,30.70
2022-08-09T13:24:17.594Z,30.80
2022-08-09T13:25:42.319Z,30.70
2022-08-09T13:27:29.055Z,30.70
2022-08-09T13:29:07.646Z,30.80
2022-08-09T13:32:09.987Z,30.70
2022-08-09T13:32:49.924Z,30.60
2022-08-09T13:34:22.882Z,30.60
2022-08-09T13:36:38.768Z,30.50
2022-08-09T13:37:52.023Z,30.40
2022-08-09T13:41:21.150Z,30.40
2022-08-09T13:41:59.535Z,30.40
2022-08-09T13:43:16.034Z,30.40
2022-08-09T13:44:51.859Z,30.50
2022-08-09T13:47:16.477Z,30.60
2022-08-09T13:48:18.759Z,30.60
2022-08-09T13:49:56.065Z,30.70
2022-08-09T13:51:29.690Z,30.70
2022-08-09T13:53:02.567Z,30.90
2022-08-09T13:54:36.388Z,30.80
2022-08-09T13:56:15.919Z,30.80
2022-08-09T13:57:55.871Z,30.70
2022-08-09T13:59:37.119Z,30.70
2022-08-09T14:01:56.309Z,30.60
2022-08-09T14:04:01.089Z,30.60
2022-08-09T14:05:01.901Z,30.60
2022-08-09T14:06:38.131Z,30.60
2022-08-09T14:08:17.413Z,30.60
2022-08-09T14:09:51.417Z,30.60
2022-08-09T14:11:26.380Z,30.60
2022-08-09T14:12:59.448Z,30.50
2022-08-09T14:14:34.939Z,30.50
2022-08-09T14:16:10.629Z,30.50
2022-08-09T14:18:18.925Z,30.40
2022-08-09T14:19:37.866Z,30.40
2022-08-09T14:21:17.151Z,30.40
2022-08-09T14:22:49.939Z,30.40
2022-08-09T14:24:32.392Z,30.40
2022-08-09T14:26:06.751Z,30.40
2022-08-09T14:27:58.582Z,30.50
2022-08-09T14:30:35.621Z,30.60
2022-08-09T14:31:49.959Z,30.60
2022-08-09T14:33:20.918Z,30.60
2022-08-09T14:34:55.604Z,30.60
2022-08-09T14:36:35.258Z,30.60
2022-08-09T14:38:12.774Z,30.70
2022-08-09T14:39:48.833Z,30.70
2022-08-09T14:41:26.619Z,30.80
2022-08-09T14:43:15.946Z,30.90
2022-08-09T14:44:59.553Z,30.90
2022-08-09T14:46:54.647Z,30.90
2022-08-09T14:48:26.729Z,31.00
2022-08-09T14:50:02.088Z,31.00
2022-08-09T14:51:42.544Z,31.00
2022-08-09T14:53:15.883Z,30.90
2022-08-09T14:54:49.607Z,30.90
2022-08-09T14:56:26.694Z,30.80
2022-08-09T14:57:59.974Z,30.80
2022-08-09T14:59:32.730Z,30.70
2022-08-09T15:01:12.777Z,30.70
2022-08-09T15:02:47.294Z,30.70
2022-08-09T15:04:23.688Z,30.60
2022-08-09T15:06:01.532Z,30.70
2022-08-09T15:07:36.248Z,30.70
2022-08-09T15:09:09.060Z,30.70
2022-08-09T15:10:43.013Z,30.70
2022-08-09T15:12:34.450Z,30.70
2022-08-09T15:14:13.251Z,30.80
2022-08-09T15:15:46.735Z,30.80
2022-08-09T15:17:19.544Z,30.70
2022-08-09T15:18:52.621Z,30.70
2022-08-09T15:21:54.744Z,30.70
2022-08-09T15:22:19.503Z,30.80
2022-08-09T15:24:09.367Z,30.80
2022-08-09T15:25:45.198Z,30.80
2022-08-09T15:27:17.934Z,30.80
2022-08-09T15:28:55.049Z,30.90
2022-08-09T15:30:55.793Z,30.80
2022-08-09T15:32:29.924Z,30.80
2022-08-09T15:34:31.806Z,30.90
2022-08-09T15:36:02.003Z,30.90
2022-08-09T15:37:57.157Z,30.80
2022-08-09T15:39:34.720Z,30.80
2022-08-09T15:41:21.946Z,30.80
2022-08-09T15:42:55.362Z,30.70
2022-08-09T15:44:28.155Z,30.70
2022-08-09T15:46:28.292Z,30.70
2022-08-09T15:48:06.525Z,30.70
2022-08-09T15:50:00.802Z,30.70
2022-08-09T15:52:03.246Z,30.70
2022-08-09T15:54:03.984Z,30.60
2022-08-09T15:55:25.361Z,30.70
2022-08-09T15:56:58.116Z,30.70
2022-08-09T15:58:30.917Z,30.70
2022-08-09T16:00:09.612Z,30.70
2022-08-09T16:01:46.675Z,30.60
2022-08-09T16:03:29.252Z,30.60
2022-08-09T16:05:10.881Z,30.60
2022-08-09T16:06:44.745Z,30.50
2022-08-09T16:08:30.388Z,30.50
2022-08-09T16:10:06.135Z,30.50
2022-08-09T16:11:50.356Z,30.40
2022-08-09T16:14:03.663Z,30.50
2022-08-09T16:16:04.629Z,30.50
2022-08-09T16:17:17.270Z,30.50
2022-08-09T16:18:50.281Z,30.50
2022-08-09T16:20:27.730Z,30.40
2022-08-09T16:22:03.334Z,30.40
2022-08-09T16:23:37.233Z,30.40
2022-08-09T16:25:15.710Z,30.50
2022-08-09T16:26:50.007Z,30.40
2022-08-09T16:28:25.566Z,30.50
2022-08-09T16:30:01.149Z,30.40
2022-08-09T16:32:10.490Z,30.50
2022-08-09T16:33:30.877Z,30.50
2022-08-09T16:35:11.251Z,30.50
2022-08-09T16:36:52.178Z,30.50
2022-08-09T16:38:25.296Z,30.50
2022-08-09T16:40:05.271Z,30.50
2022-08-09T16:41:39.353Z,30.50
2022-08-09T16:43:32.966Z,30.40
2022-08-09T16:45:14.691Z,30.30
2022-08-09T16:46:55.182Z,30.30
2022-08-09T16:48:38.781Z,30.30
2022-08-09T16:50:29.192Z,30.40
2022-08-09T16:52:05.760Z,30.30
2022-08-09T16:54:09.015Z,30.30
2022-08-09T16:55:59.987Z,30.30
2022-08-09T16:58:08.020Z,30.20
2022-08-09T16:59:22.988Z,30.30
2022-08-09T17:00:56.977Z,30.20
2022-08-09T17:02:30.643Z,30.30
2022-08-09T17:04:05.272Z,30.30
2022-08-09T17:06:07.519Z,30.30
2022-08-09T17:08:44.907Z,30.30
2022-08-09T17:09:45.980Z,30.20
2022-08-09T17:11:18.445Z,30.20
2022-08-09T17:12:57.479Z,30.20
2022-08-09T17:14:31.642Z,30.20
2022-08-09T17:16:04.959Z,30.10
2022-08-09T17:17:50.997Z,30.10
2022-08-09T17:19:24.238Z,30.10
2022-08-09T17:20:59.226Z,30.10
2022-08-09T17:22:33.875Z,30.10
2022-08-09T17:24:28.188Z,30.00
2022-08-09T17:26:02.186Z,30.00
2022-08-09T17:27:38.380Z,30.00
2022-08-09T17:29:19.209Z,30.00
2022-08-09T17:30:54.578Z,30.00
2022-08-09T17:32:37.445Z,29.90
2022-08-09T17:35:00.850Z,30.00
2022-08-09T17:36:03.896Z,29.90
2022-08-09T17:38:02.234Z,29.90
2022-08-09T17:39:48.318Z,29.90
2022-08-09T17:41:38.553Z,29.80
2022-08-09T17:43:33.997Z,29.80
2022-08-09T17:45:06.548Z,29.80
2022-08-09T17:46:55.546Z,29.80
2022-08-09T17:48:30.599Z,29.70
2022-08-09T17:50:11.030Z,29.70
2022-08-09T17:51:50.211Z,29.70
2022-08-09T17:53:22.973Z,29.60
2022-08-09T17:54:55.946Z,29.60
2022-08-09T17:56:35.525Z,29.60
2022-08-09T17:58:10.566Z,29.50
2022-08-09T17:59:43.531Z,29.50
2022-08-09T18:02:06.374Z,29.50
2022-08-09T18:03:31.906Z,29.40
2022-08-09T18:05:05.259Z,29.40
2022-08-09T18:06:38.116Z,29.40
2022-08-09T18:08:10.962Z,29.30
2022-08-09T18:09:45.967Z,29.30
2022-08-09T18:11:46.839Z,29.30
2022-08-09T18:13:43.038Z,29.20
2022-08-09T18:15:50.270Z,29.20
2022-08-09T18:17:18.954Z,29.10
2022-08-09T18:19:03.931Z,29.10
2022-08-09T18:21:18.984Z,29.00
2022-08-09T18:22:51.260Z,29.00
2022-08-09T18:24:27.460Z,29.00
2022-08-09T18:26:00.850Z,28.90
2022-08-09T18:28:03.615Z,28.90
2022-08-09T18:30:40.883Z,28.80
2022-08-09T18:31:24.860Z,28.80
2022-08-09T18:33:15.158Z,28.70
2022-08-09T18:34:49.413Z,28.70
2022-08-09T18:36:25.670Z,28.60
2022-08-09T18:38:05.118Z,28.60
2022-08-09T18:39:39.555Z,28.50
2022-08-09T18:41:16.374Z,28.50
2022-08-09T18:42:49.301Z,28.40
2022-08-09T18:44:25.548Z,28.40
2022-08-09T18:46:47.970Z,28.30
2022-08-09T18:47:52.858Z,28.30
2022-08-09T18:49:26.244Z,28.20
2022-08-09T18:51:00.618Z,28.20
2022-08-09T18:52:35.037Z,28.20
2022-08-09T18:54:16.554Z,28.10
2022-08-09T18:55:57.185Z,28.10
2022-08-09T18:57:43.379Z,28.00
2022-08-09T18:59:17.544Z,28.00
2022-08-09T19:00:52.942Z,27.90
2022-08-09T19:02:31.678Z,27.90
2022-08-09T19:04:08.813Z,27.80
2022-08-09T19:06:02.316Z,27.80
2022-08-09T19:07:36.047Z,27.70
2022-08-09T19:09:20.345Z,27.70
2022-08-09T19:11:01.879Z,27.60
2022-08-09T19:12:36.679Z,27.60
2022-08-09T19:14:10.928Z,27.60
2022-08-09T19:15:49.289Z,27.50
2022-08-09T19:17:23.118Z,27.50
2022-08-09T19:18:55.964Z,27.40
2022-08-09T19:20:34.159Z,27.40
2022-08-09T19:22:12.035Z,27.30
2022-08-09T19:24:36.017Z,27.30
2022-08-09T19:26:02.183Z,27.30
2022-08-09T19:27:37.776Z,27.20
2022-08-09T19:29:17.933Z,27.20
2022-08-09T19:30:53.317Z,27.20
2022-08-09T19:32:29.597Z,27.10
2022-08-09T19:34:04.969Z,27.10
2022-08-09T19:35:58.169Z,27.10
2022-08-09T19:37:33.190Z,27.10
2022-08-09T19:39:43.493Z,27.00
2022-08-09T19:41:35.361Z,26.90
2022-08-09T19:43:10.188Z,26.90
2022-08-09T19:44:50.686Z,26.80
2022-08-09T19:46:34.220Z,26.80
2022-08-09T19:48:16.830Z,26.70
2022-08-09T19:50:49.111Z,26.70
2022-08-09T19:52:03.118Z,26.70
2022-08-09T19:53:37.219Z,26.60
2022-08-09T19:55:31.067Z,26.60
2022-08-09T19:57:13.201Z,26.60
2022-08-09T19:58:56.407Z,26.50
2022-08-09T20:00:42.099Z,26.50
2022-08-09T20:04:09.656Z,26.40
2022-08-09T20:04:26.342Z,26.40
2022-08-09T20:06:03.398Z,26.30
2022-08-09T20:07:59.356Z,26.30
2022-08-09T20:09:44.680Z,26.30
2022-08-09T20:11:20.103Z,26.20
2022-08-09T20:12:58.495Z,26.20
2022-08-09T20:14:33.110Z,26.20
2022-08-09T20:16:34.004Z,26.10
2022-08-09T20:18:00.933Z,26.10
2022-08-09T20:19:49.619Z,26.00
2022-08-09T20:21:54.925Z,26.00
2022-08-09T20:23:22.890Z,25.90
2022-08-09T20:24:56.527Z,25.90
2022-08-09T20:26:30.648Z,25.90
2022-08-09T20:28:03.459Z,25.80
2022-08-09T20:29:38.565Z,25.70
2022-08-09T20:31:13.833Z,25.70
2022-08-09T20:32:48.524Z,25.70
2022-08-09T20:34:25.306Z,25.70
2022-08-09T20:35:58.094Z,25.60
2022-08-09T20:38:18.492Z,25.60
2022-08-09T20:40:13.798Z,25.50
2022-08-09T20:41:17.754Z,25.50
2022-08-09T20:42:59.236Z,25.50
2022-08-09T20:44:36.365Z,25.40
2022-08-09T20:46:33.227Z,25.30
2022-08-09T20:48:02.093Z,25.30
2022-08-09T20:49:35.226Z,25.30
2022-08-09T20:51:19.113Z,25.30
2022-08-09T20:52:52.695Z,25.30
2022-08-09T20:54:25.600Z,25.20
2022-08-09T20:56:02.984Z,25.20
2022-08-09T20:58:05.336Z,25.10
2022-08-09T21:00:20.999Z,25.10
2022-08-09T21:01:35.398Z,25.00
2022-08-09T21:03:19.620Z,25.00
2022-08-09T21:05:50.731Z,25.00
2022-08-09T21:06:50.576Z,25.00
2022-08-09T21:08:23.331Z,25.00
2022-08-09T21:10:11.590Z,24.90
2022-08-09T21:13:57.780Z,24.80
2022-08-09T21:15:34.617Z,24.80
2022-08-09T21:18:24.130Z,24.80
2022-08-09T21:20:04.232Z,24.80
2022-08-09T21:20:54.642Z,24.80
2022-08-09T21:22:38.388Z,24.70
2022-08-09T21:24:12.042Z,24.70
2022-08-09T21:25:56.085Z,24.70
2022-08-09T21:27:51.675Z,24.70
2022-08-09T21:29:25.868Z,24.70
2022-08-09T21:30:59.780Z,24.70
2022-08-09T21:32:33.578Z,24.60
2022-08-09T21:34:08.289Z,24.60
2022-08-09T21:35:50.798Z,24.60
2022-08-09T21:37:24.288Z,24.60
2022-08-09T21:39:00.027Z,24.60
2022-08-09T21:40:33.015Z,24.50
2022-08-09T21:42:10.724Z,24.60
2022-08-09T21:43:56.766Z,24.50
2022-08-09T21:45:31.627Z,24.40
2022-08-09T21:47:17.476Z,24.40
2022-08-09T21:48:51.401Z,24.40
2022-08-09T21:50:38.552Z,24.30
2022-08-09T21:52:16.342Z,24.30
2022-08-09T21:53:50.515Z,24.30
2022-08-09T21:55:24.187Z,24.30